Dai2kousei — JD2542 — position and weather

sailwx.info

Track history (hours):
 
Tides and Currents Weather Stations Pressure Air Temp Water Temp Dewpoint Dewpoint Depression Visibility Wind Speed Wind Dir Waves Ship Positions

Dai2kousei

Last reported at 2015-Mar-23 15:33 UTC. Time now 2015-Apr-02 01:24 UTC.
Position N 34°11' E 134°56'.
Warning: this ship's position is 9 days out of date.

Length 77 m; draft 3.8 m.

MMSI: 431000467.

Date/timePositionNaut miles runAvg speedWind from/ knotsBaromVisibWave heightAir tempDewpointWater temp
2015-Mar-23 15:33N 34°11' E 134°56'1110.7
2015-Mar-23 14:33N 34°22' E 135°00'1211.9
2015-Mar-23 13:33N 34°30' E 135°11'1211.8
2015-Mar-23 12:33N 34°36' E 135°22'4 2.8
2015-Mar-23 11:07N 34°35' E 135°27'0 0.0
2015-Mar-23 06:31N 34°35' E 135°27'0 0.0
2015-Mar-23 05:22N 34°35' E 135°27'1 0.2
2015-Mar-23 02:30N 34°35' E 135°27'0 0.0
2015-Mar-23 01:14N 34°35' E 135°27'0 0.1
2015-Mar-23 00:27N 34°35' E 135°27'0 0.0
2015-Mar-22 22:33N 34°35' E 135°27'0 0.1
2015-Mar-22 21:33N 34°35' E 135°27'0 0.0
2015-Mar-22 20:33N 34°35' E 135°27'0 0.0
2015-Mar-22 19:11N 34°35' E 135°27'0 0.0
2015-Mar-22 18:33N 34°35' E 135°27'0 0.1
2015-Mar-22 17:32N 34°35' E 135°27'4 4.4
2015-Mar-22 16:33N 34°36' E 135°21'1110.7
2015-Mar-22 15:33N 34°29' E 135°12'1110.7
2015-Mar-22 14:30N 34°19' E 135°05'5 5.4
2015-Mar-22 13:33N 34°15' E 135°07'0 0.0
2015-Mar-22 12:33N 34°15' E 135°07'0 0.0
2015-Mar-22 11:33N 34°15' E 135°07'0 0.0
2015-Mar-22 10:33N 34°15' E 135°07'0 0.2
2015-Mar-22 09:33N 34°15' E 135°07'0 0.1
2015-Mar-22 08:33N 34°15' E 135°07'0 0.0
2015-Mar-22 07:33N 34°15' E 135°07'0 0.0
2015-Mar-22 06:33N 34°15' E 135°07'0 0.0
2015-Mar-22 05:33N 34°15' E 135°07'0 0.0
2015-Mar-22 04:33N 34°15' E 135°07'0 0.0
2015-Mar-22 03:33N 34°15' E 135°07'0 0.0
2015-Mar-22 02:33N 34°15' E 135°07'0 0.0
2015-Mar-22 01:33N 34°15' E 135°07'1 1.3
2015-Mar-22 00:27N 34°15' E 135°05'0 0.0
2015-Mar-21 23:33N 34°15' E 135°05'0 0.0
2015-Mar-21 22:30N 34°15' E 135°05'0 0.0
2015-Mar-21 21:33N 34°15' E 135°05'0 0.0
2015-Mar-21 20:33N 34°15' E 135°05'0 0.0
2015-Mar-21 19:33N 34°15' E 135°05'0 0.0
2015-Mar-21 18:33N 34°15' E 135°05'0 0.0
2015-Mar-21 17:32N 34°15' E 135°05'0 0.0
2015-Mar-21 16:28N 34°15' E 135°05'0 0.0
2015-Mar-21 15:33N 34°15' E 135°05'0 0.0
2015-Mar-21 14:33N 34°15' E 135°05'0 0.1
2015-Mar-21 13:33N 34°15' E 135°05'0 0.0
2015-Mar-21 12:33N 34°15' E 135°05'0 0.0
2015-Mar-21 11:33N 34°15' E 135°05'0 0.0
2015-Mar-21 10:33N 34°15' E 135°05'0 0.0
2015-Mar-21 09:29N 34°15' E 135°05'0 0.0
2015-Mar-21 08:34N 34°15' E 135°05'0 0.0
2015-Mar-21 07:33N 34°15' E 135°05'0 0.0
2015-Mar-21 06:33N 34°15' E 135°05'0 0.0
2015-Mar-21 05:33N 34°15' E 135°06'0 0.1
2015-Mar-21 04:33N 34°15' E 135°05'0 0.1
2015-Mar-21 03:33N 34°15' E 135°06'0 0.1
2015-Mar-21 02:33N 34°15' E 135°05'0 0.0
2015-Mar-21 01:33N 34°15' E 135°05'0 0.0
2015-Mar-21 00:33N 34°15' E 135°05'0 0.0
2015-Mar-20 23:33N 34°15' E 135°05'0 0.0
2015-Mar-20 22:33N 34°15' E 135°05'0 0.0
2015-Mar-20 21:33N 34°15' E 135°05'0 0.0
2015-Mar-20 20:33N 34°15' E 135°05'0 0.0
2015-Mar-20 19:31N 34°15' E 135°05'0 0.0
2015-Mar-20 18:33N 34°15' E 135°05'0 0.0
2015-Mar-20 17:33N 34°15' E 135°05'0 0.0
2015-Mar-20 16:33N 34°15' E 135°05'0 0.0
2015-Mar-20 15:33N 34°15' E 135°05'2 2.3
2015-Mar-20 14:33N 34°14' E 135°08'0 0.0
2015-Mar-20 13:33N 34°14' E 135°08'0 0.0
2015-Mar-20 12:33N 34°14' E 135°08'0 0.0
2015-Mar-20 11:33N 34°14' E 135°08'0 0.0
2015-Mar-20 10:33N 34°14' E 135°08'0 0.0
2015-Mar-20 09:33N 34°14' E 135°08'0 0.0
2015-Mar-20 08:33N 34°14' E 135°08'0 0.0
2015-Mar-20 07:33N 34°14' E 135°08'2 2.4
2015-Mar-20 06:33N 34°15' E 135°05'0 0.0
2015-Mar-20 05:32N 34°15' E 135°05'0 0.1
2015-Mar-20 04:33N 34°15' E 135°05'0 0.0
2015-Mar-20 03:33N 34°15' E 135°05'0 0.0
2015-Mar-20 02:33N 34°15' E 135°05'0 0.0
2015-Mar-20 01:33N 34°15' E 135°05'0 0.0
2015-Mar-20 00:33N 34°15' E 135°05'0 0.0
2015-Mar-19 23:33N 34°15' E 135°05'0 0.0
2015-Mar-19 22:33N 34°15' E 135°05'0 0.1
2015-Mar-19 21:32N 34°15' E 135°05'0 0.0
2015-Mar-19 20:33N 34°15' E 135°05'0 0.0
2015-Mar-19 19:33N 34°15' E 135°05'0 0.0
2015-Mar-19 18:33N 34°15' E 135°05'0 0.0
2015-Mar-19 17:33N 34°15' E 135°05'0 0.0
2015-Mar-19 16:33N 34°15' E 135°05'0 0.0
2015-Mar-19 15:33N 34°15' E 135°05'0 0.0
2015-Mar-19 14:32N 34°15' E 135°05'0 0.1
2015-Mar-19 13:33N 34°15' E 135°05'0 0.0
2015-Mar-19 12:33N 34°15' E 135°05'3 3.0
2015-Mar-19 11:33N 34°12' E 135°03'  
Track history (hours):
 
Tides and Currents Weather Stations Pressure Air Temp Water Temp Dewpoint Dewpoint Depression Visibility Wind Speed Wind Dir Waves Ship Positions

Dai2kousei

Last reported at 2015-Mar-23 15:33 UTC. Time now 2015-Apr-02 01:24 UTC.
Position N 34°11' E 134°56'.
Warning: this ship's position is 9 days out of date.

Length 77 m; draft 3.8 m.

MMSI: 431000467.

Date/timePositionNaut miles runAvg speedWind from/ knotsBaromVisibWave heightAir tempDewpointWater temp
2015-Mar-23 15:33N 34°11' E 134°56'1110.7
2015-Mar-23 14:33N 34°22' E 135°00'1211.9
2015-Mar-23 13:33N 34°30' E 135°11'1211.8
2015-Mar-23 12:33N 34°36' E 135°22'4 2.8
2015-Mar-23 11:07N 34°35' E 135°27'0 0.0
2015-Mar-23 06:31N 34°35' E 135°27'0 0.0
2015-Mar-23 05:22N 34°35' E 135°27'1 0.2
2015-Mar-23 02:30N 34°35' E 135°27'0 0.0
2015-Mar-23 01:14N 34°35' E 135°27'0 0.1
2015-Mar-23 00:27N 34°35' E 135°27'0 0.0
2015-Mar-22 22:33N 34°35' E 135°27'0 0.1
2015-Mar-22 21:33N 34°35' E 135°27'0 0.0
2015-Mar-22 20:33N 34°35' E 135°27'0 0.0
2015-Mar-22 19:11N 34°35' E 135°27'0 0.0
2015-Mar-22 18:33N 34°35' E 135°27'0 0.1
2015-Mar-22 17:32N 34°35' E 135°27'4 4.4
2015-Mar-22 16:33N 34°36' E 135°21'1110.7
2015-Mar-22 15:33N 34°29' E 135°12'1110.7
2015-Mar-22 14:30N 34°19' E 135°05'5 5.4
2015-Mar-22 13:33N 34°15' E 135°07'0 0.0
2015-Mar-22 12:33N 34°15' E 135°07'0 0.0
2015-Mar-22 11:33N 34°15' E 135°07'0 0.0
2015-Mar-22 10:33N 34°15' E 135°07'0 0.2
2015-Mar-22 09:33N 34°15' E 135°07'0 0.1
2015-Mar-22 08:33N 34°15' E 135°07'0 0.0
2015-Mar-22 07:33N 34°15' E 135°07'0 0.0
2015-Mar-22 06:33N 34°15' E 135°07'0 0.0
2015-Mar-22 05:33N 34°15' E 135°07'0 0.0
2015-Mar-22 04:33N 34°15' E 135°07'0 0.0
2015-Mar-22 03:33N 34°15' E 135°07'0 0.0
2015-Mar-22 02:33N 34°15' E 135°07'0 0.0
2015-Mar-22 01:33N 34°15' E 135°07'1 1.3
2015-Mar-22 00:27N 34°15' E 135°05'0 0.0
2015-Mar-21 23:33N 34°15' E 135°05'0 0.0
2015-Mar-21 22:30N 34°15' E 135°05'0 0.0
2015-Mar-21 21:33N 34°15' E 135°05'0 0.0
2015-Mar-21 20:33N 34°15' E 135°05'0 0.0
2015-Mar-21 19:33N 34°15' E 135°05'0 0.0
2015-Mar-21 18:33N 34°15' E 135°05'0 0.0
2015-Mar-21 17:32N 34°15' E 135°05'0 0.0
2015-Mar-21 16:28N 34°15' E 135°05'0 0.0
2015-Mar-21 15:33N 34°15' E 135°05'0 0.0
2015-Mar-21 14:33N 34°15' E 135°05'0 0.1
2015-Mar-21 13:33N 34°15' E 135°05'0 0.0
2015-Mar-21 12:33N 34°15' E 135°05'0 0.0
2015-Mar-21 11:33N 34°15' E 135°05'0 0.0
2015-Mar-21 10:33N 34°15' E 135°05'0 0.0
2015-Mar-21 09:29N 34°15' E 135°05'0 0.0
2015-Mar-21 08:34N 34°15' E 135°05'0 0.0
2015-Mar-21 07:33N 34°15' E 135°05'0 0.0
2015-Mar-21 06:33N 34°15' E 135°05'0 0.0
2015-Mar-21 05:33N 34°15' E 135°06'0 0.1
2015-Mar-21 04:33N 34°15' E 135°05'0 0.1
2015-Mar-21 03:33N 34°15' E 135°06'0 0.1
2015-Mar-21 02:33N 34°15' E 135°05'0 0.0
2015-Mar-21 01:33N 34°15' E 135°05'0 0.0
2015-Mar-21 00:33N 34°15' E 135°05'0 0.0
2015-Mar-20 23:33N 34°15' E 135°05'0 0.0
2015-Mar-20 22:33N 34°15' E 135°05'0 0.0
2015-Mar-20 21:33N 34°15' E 135°05'0 0.0
2015-Mar-20 20:33N 34°15' E 135°05'0 0.0
2015-Mar-20 19:31N 34°15' E 135°05'0 0.0
2015-Mar-20 18:33N 34°15' E 135°05'0 0.0
2015-Mar-20 17:33N 34°15' E 135°05'0 0.0
2015-Mar-20 16:33N 34°15' E 135°05'0 0.0
2015-Mar-20 15:33N 34°15' E 135°05'2 2.3
2015-Mar-20 14:33N 34°14' E 135°08'0 0.0
2015-Mar-20 13:33N 34°14' E 135°08'0 0.0
2015-Mar-20 12:33N 34°14' E 135°08'0 0.0
2015-Mar-20 11:33N 34°14' E 135°08'0 0.0
2015-Mar-20 10:33N 34°14' E 135°08'0 0.0
2015-Mar-20 09:33N 34°14' E 135°08'0 0.0
2015-Mar-20 08:33N 34°14' E 135°08'0 0.0
2015-Mar-20 07:33N 34°14' E 135°08'2 2.4
2015-Mar-20 06:33N 34°15' E 135°05'0 0.0
2015-Mar-20 05:32N 34°15' E 135°05'0 0.1
2015-Mar-20 04:33N 34°15' E 135°05'0 0.0
2015-Mar-20 03:33N 34°15' E 135°05'0 0.0
2015-Mar-20 02:33N 34°15' E 135°05'0 0.0
2015-Mar-20 01:33N 34°15' E 135°05'0 0.0
2015-Mar-20 00:33N 34°15' E 135°05'0 0.0
2015-Mar-19 23:33N 34°15' E 135°05'0 0.0
2015-Mar-19 22:33N 34°15' E 135°05'0 0.1
2015-Mar-19 21:32N 34°15' E 135°05'0 0.0
2015-Mar-19 20:33N 34°15' E 135°05'0 0.0
2015-Mar-19 19:33N 34°15' E 135°05'0 0.0
2015-Mar-19 18:33N 34°15' E 135°05'0 0.0
2015-Mar-19 17:33N 34°15' E 135°05'0 0.0
2015-Mar-19 16:33N 34°15' E 135°05'0 0.0
2015-Mar-19 15:33N 34°15' E 135°05'0 0.0
2015-Mar-19 14:32N 34°15' E 135°05'0 0.1
2015-Mar-19 13:33N 34°15' E 135°05'0 0.0
2015-Mar-19 12:33N 34°15' E 135°05'3 3.0
2015-Mar-19 11:33N 34°12' E 135°03'  

Dump ship's entire track history